createdAt,value
2023-03-06T00:00:34.556Z,15.70
2023-03-06T00:03:01.395Z,16.35
2023-03-06T00:05:28.220Z,14.75
2023-03-06T00:07:54.944Z,14.68
2023-03-06T00:10:24.854Z,15.30
2023-03-06T00:12:56.572Z,16.40
2023-03-06T00:15:25.500Z,15.57
2023-03-06T00:17:53.194Z,14.73
2023-03-06T00:20:20.757Z,15.85
2023-03-06T00:22:47.457Z,13.90
2023-03-06T00:25:17.045Z,15.15
2023-03-06T00:27:44.166Z,17.58
2023-03-06T00:30:13.545Z,16.80
2023-03-06T00:35:07.268Z,15.40
2023-03-06T00:37:33.877Z,16.00
2023-03-06T00:40:00.546Z,15.93
2023-03-06T00:42:27.195Z,15.45
2023-03-06T00:44:53.892Z,16.13
2023-03-06T00:47:20.572Z,16.70
2023-03-06T00:49:47.246Z,17.88
2023-03-06T00:52:13.993Z,19.25
2023-03-06T00:54:41.288Z,17.35
2023-03-06T00:57:08.560Z,17.88
2023-03-06T00:59:35.344Z,19.38
2023-03-06T01:02:03.008Z,18.05
2023-03-06T01:04:29.778Z,17.95
2023-03-06T01:06:56.433Z,16.88
2023-03-06T01:09:23.074Z,18.58
2023-03-06T01:11:49.724Z,17.48
2023-03-06T01:14:19.098Z,17.45
2023-03-06T01:19:13.176Z,18.85
2023-03-06T01:21:40.193Z,18.08
2023-03-06T01:24:07.065Z,19.30
2023-03-06T01:26:34.622Z,20.00
2023-03-06T01:29:01.736Z,18.38
2023-03-06T01:31:28.421Z,19.63
2023-03-06T01:33:55.340Z,20.77
2023-03-06T01:36:22.004Z,20.83
2023-03-06T01:38:48.682Z,19.77
2023-03-06T01:41:18.273Z,19.73
2023-03-06T01:43:46.496Z,19.85
2023-03-06T01:46:41.816Z,17.25
2023-03-06T01:49:16.667Z,20.60
2023-03-06T01:51:49.752Z,21.08
2023-03-06T01:54:26.977Z,19.08
2023-03-06T01:57:00.407Z,20.40
2023-03-06T01:59:28.658Z,18.33
2023-03-06T02:01:57.184Z,19.08
2023-03-06T02:04:24.692Z,20.47
2023-03-06T02:06:51.817Z,20.80
2023-03-06T02:09:18.733Z,20.73
2023-03-06T02:11:46.353Z,20.38
2023-03-06T02:14:16.404Z,21.08
2023-03-06T02:16:43.814Z,20.33
2023-03-06T02:19:33.330Z,19.13
2023-03-06T02:22:00.501Z,19.77
2023-03-06T02:24:36.832Z,19.42
2023-03-06T02:27:05.435Z,19.08
2023-03-06T02:29:32.208Z,19.07
2023-03-06T02:31:58.893Z,18.65
2023-03-06T02:34:25.599Z,20.17
2023-03-06T02:36:55.641Z,17.10
2023-03-06T02:39:25.581Z,18.33
2023-03-06T02:41:52.514Z,19.00
2023-03-06T02:44:19.659Z,18.70
2023-03-06T02:46:46.308Z,18.77
2023-03-06T02:49:12.935Z,17.45
2023-03-06T02:51:39.604Z,18.02
2023-03-06T02:54:06.424Z,18.45
2023-03-06T02:56:33.028Z,18.15
2023-03-06T02:58:59.656Z,19.63
2023-03-06T03:01:26.399Z,18.73
2023-03-06T03:03:53.032Z,20.33
2023-03-06T03:06:19.648Z,18.02
2023-03-06T03:08:46.245Z,18.60
2023-03-06T03:11:12.867Z,18.20
2023-03-06T03:13:39.467Z,18.35
2023-03-06T03:16:08.849Z,18.38
2023-03-06T03:21:03.317Z,16.77
2023-03-06T03:23:29.909Z,18.35
2023-03-06T03:25:56.577Z,18.38
2023-03-06T03:28:23.171Z,17.98
2023-03-06T03:30:49.816Z,18.50
2023-03-06T03:33:16.486Z,18.95
2023-03-06T03:35:43.116Z,19.08
2023-03-06T03:38:09.867Z,18.70
2023-03-06T03:40:36.505Z,18.08
2023-03-06T03:43:03.196Z,16.23
2023-03-06T03:45:29.873Z,18.55
2023-03-06T03:47:56.475Z,19.35
2023-03-06T03:50:23.230Z,18.83
2023-03-06T03:52:49.880Z,18.15
2023-03-06T03:55:16.647Z,18.25
2023-03-06T03:57:43.390Z,16.63
2023-03-06T04:00:14.877Z,18.85
2023-03-06T04:02:42.373Z,18.52
2023-03-06T04:05:10.376Z,17.77
2023-03-06T04:07:37.455Z,18.00
2023-03-06T04:10:05.330Z,19.15
2023-03-06T04:12:32.084Z,17.83
2023-03-06T04:14:59.165Z,17.27
2023-03-06T04:17:26.165Z,15.68
2023-03-06T04:19:52.934Z,17.50
2023-03-06T04:22:19.635Z,16.38
2023-03-06T04:24:48.890Z,18.13
2023-03-06T04:27:15.970Z,17.95
2023-03-06T04:29:42.629Z,17.52
2023-03-06T04:32:09.424Z,17.35
2023-03-06T04:34:36.188Z,18.33
2023-03-06T04:37:02.889Z,17.60
2023-03-06T04:39:29.504Z,17.52
2023-03-06T04:41:56.134Z,17.58
2023-03-06T04:44:22.803Z,17.85
2023-03-06T04:46:49.542Z,19.73
2023-03-06T04:49:16.152Z,19.20
2023-03-06T04:51:42.802Z,18.48
2023-03-06T04:54:09.390Z,19.60
2023-03-06T04:56:36.047Z,20.08
2023-03-06T04:59:04.308Z,20.20
2023-03-06T05:01:31.012Z,19.85
2023-03-06T05:03:57.684Z,19.40
2023-03-06T05:06:24.339Z,20.30
2023-03-06T05:08:50.989Z,20.17
2023-03-06T05:11:17.618Z,20.65
2023-03-06T05:13:44.560Z,19.67
2023-03-06T05:16:11.186Z,19.00
2023-03-06T05:18:38.055Z,18.85
2023-03-06T05:21:06.134Z,20.55
2023-03-06T05:23:34.887Z,20.67
2023-03-06T05:26:01.714Z,21.35
2023-03-06T05:28:28.762Z,20.27
2023-03-06T05:30:55.555Z,22.33
2023-03-06T05:33:22.227Z,22.05
2023-03-06T05:35:49.473Z,21.10
2023-03-06T05:38:16.754Z,21.05
2023-03-06T05:40:44.671Z,23.00
2023-03-06T05:43:12.477Z,21.30
2023-03-06T05:45:39.989Z,20.60
2023-03-06T05:48:07.612Z,22.90
2023-03-06T05:50:34.339Z,22.10
2023-03-06T05:53:01.232Z,21.42
2023-03-06T05:55:27.889Z,20.98
2023-03-06T05:57:54.552Z,21.83
2023-03-06T06:00:23.210Z,19.65
2023-03-06T06:02:50.200Z,21.50
2023-03-06T06:05:17.094Z,20.83
2023-03-06T06:07:43.731Z,22.80
2023-03-06T06:10:11.637Z,19.10
2023-03-06T06:12:38.367Z,19.88
2023-03-06T06:15:06.622Z,20.58
2023-03-06T06:17:33.336Z,22.23
2023-03-06T06:20:00.014Z,21.08
2023-03-06T06:22:26.596Z,20.50
2023-03-06T06:24:53.217Z,22.40
2023-03-06T06:27:19.848Z,22.05
2023-03-06T06:29:46.441Z,23.05
2023-03-06T06:32:13.130Z,22.58
2023-03-06T06:34:39.915Z,22.98
2023-03-06T06:37:06.666Z,23.40
2023-03-06T06:39:33.255Z,22.90
2023-03-06T06:42:26.138Z,21.77
2023-03-06T06:44:46.567Z,23.65
2023-03-06T06:47:28.918Z,23.60
2023-03-06T06:49:56.539Z,22.58
2023-03-06T06:52:24.590Z,22.17
2023-03-06T06:54:52.038Z,24.40
2023-03-06T06:57:18.905Z,26.52
2023-03-06T06:59:45.605Z,24.55
2023-03-06T07:02:13.768Z,21.95
2023-03-06T07:04:52.379Z,23.95
2023-03-06T07:07:27.383Z,23.83
2023-03-06T07:09:55.571Z,22.83
2023-03-06T07:12:22.213Z,24.42
2023-03-06T07:14:48.886Z,21.83
2023-03-06T07:17:15.581Z,23.35
2023-03-06T07:19:42.216Z,22.23
2023-03-06T07:22:08.934Z,20.65
2023-03-06T07:24:35.660Z,22.08
2023-03-06T07:27:05.342Z,21.25
2023-03-06T07:29:34.054Z,21.90
2023-03-06T07:32:00.977Z,21.58
2023-03-06T07:34:27.740Z,21.00
2023-03-06T07:36:54.392Z,20.77
2023-03-06T07:39:21.062Z,22.02
2023-03-06T07:41:47.734Z,21.38
2023-03-06T07:44:14.519Z,19.92
2023-03-06T07:46:41.377Z,22.50
2023-03-06T07:49:08.088Z,22.23
2023-03-06T07:51:34.772Z,21.85
2023-03-06T07:54:01.432Z,19.58
2023-03-06T07:56:28.003Z,21.20
2023-03-06T07:58:56.710Z,19.98
2023-03-06T08:01:24.304Z,22.88
2023-03-06T08:03:52.023Z,20.95
2023-03-06T08:06:24.779Z,22.33
2023-03-06T08:08:53.239Z,21.15
2023-03-06T08:11:22.853Z,21.13
2023-03-06T08:13:49.748Z,20.25
2023-03-06T08:16:17.649Z,20.20
2023-03-06T08:18:46.326Z,18.38
2023-03-06T08:21:16.160Z,20.48
2023-03-06T08:23:43.813Z,21.10
2023-03-06T08:26:15.956Z,20.55
2023-03-06T08:28:43.548Z,20.38
2023-03-06T08:31:28.894Z,19.85
2023-03-06T08:33:57.706Z,19.27
2023-03-06T08:36:24.629Z,19.20
2023-03-06T08:38:51.669Z,19.73
2023-03-06T08:41:20.180Z,20.02
2023-03-06T08:43:47.166Z,20.97
2023-03-06T08:46:13.907Z,18.45
2023-03-06T08:48:41.150Z,18.30
2023-03-06T08:51:11.280Z,16.83
2023-03-06T08:53:43.518Z,19.83
2023-03-06T08:56:24.078Z,18.30
2023-03-06T08:58:51.929Z,17.88
2023-03-06T09:01:27.790Z,18.58
2023-03-06T09:03:56.315Z,17.45
2023-03-06T09:06:23.934Z,17.30
2023-03-06T09:08:52.348Z,17.70
2023-03-06T09:11:21.036Z,18.65
2023-03-06T09:13:47.690Z,16.08
2023-03-06T09:16:14.405Z,18.30
2023-03-06T09:18:41.705Z,16.92
2023-03-06T09:21:09.660Z,15.65
2023-03-06T09:23:37.252Z,15.18
2023-03-06T09:26:03.908Z,15.90
2023-03-06T09:28:30.588Z,15.70
2023-03-06T09:30:57.405Z,15.57
2023-03-06T09:33:24.175Z,15.65
2023-03-06T09:35:54.728Z,15.02
2023-03-06T09:38:23.965Z,14.60
2023-03-06T09:41:00.456Z,15.77
2023-03-06T09:43:32.647Z,15.32
2023-03-06T09:45:59.565Z,15.85
2023-03-06T09:48:39.540Z,15.73
2023-03-06T09:51:16.122Z,14.60
2023-03-06T09:54:14.710Z,15.05
2023-03-06T09:56:48.856Z,14.70
2023-03-06T09:59:20.924Z,13.00
2023-03-06T10:01:56.484Z,12.95
2023-03-06T10:04:36.577Z,14.48
2023-03-06T10:07:23.605Z,14.15
2023-03-06T10:10:02.822Z,13.80
2023-03-06T10:12:35.297Z,12.57
2023-03-06T10:15:16.368Z,11.52
2023-03-06T10:17:43.995Z,11.38
2023-03-06T10:20:17.379Z,11.80
2023-03-06T10:23:06.800Z,11.70
2023-03-06T10:28:24.460Z,10.57
2023-03-06T10:31:05.121Z,10.98
2023-03-06T10:33:53.084Z,11.60
2023-03-06T10:36:22.039Z,10.43
2023-03-06T10:38:49.153Z,9.85
2023-03-06T10:41:29.164Z,10.98
2023-03-06T10:44:04.874Z,11.43
2023-03-06T10:46:43.424Z,9.75
2023-03-06T10:49:30.576Z,10.77
2023-03-06T10:52:19.255Z,9.88
2023-03-06T10:54:47.139Z,10.13
2023-03-06T10:57:31.078Z,10.95
2023-03-06T10:59:58.906Z,9.35
2023-03-06T11:02:41.207Z,10.27
2023-03-06T11:05:20.412Z,10.77
2023-03-06T11:08:01.667Z,11.82
2023-03-06T11:10:30.069Z,11.43
2023-03-06T11:13:17.189Z,10.13
2023-03-06T11:16:00.292Z,9.55
2023-03-06T11:18:35.254Z,9.80
2023-03-06T11:21:04.603Z,10.05
2023-03-06T11:23:46.708Z,8.43
2023-03-06T11:26:16.567Z,9.02
2023-03-06T11:29:20.493Z,8.30
2023-03-06T11:32:25.272Z,8.70
2023-03-06T11:35:04.434Z,8.48
2023-03-06T11:37:53.999Z,8.48
2023-03-06T11:40:40.426Z,8.63
2023-03-06T11:43:17.124Z,8.95
2023-03-06T11:45:54.829Z,9.32
2023-03-06T11:48:33.418Z,9.43
2023-03-06T11:51:25.975Z,9.60
2023-03-06T11:53:54.077Z,9.63
2023-03-06T11:56:23.694Z,9.52
2023-03-06T11:59:11.780Z,9.98
2023-03-06T12:01:46.069Z,8.77
2023-03-06T12:04:26.962Z,9.20
2023-03-06T12:07:32.728Z,8.70
2023-03-06T12:10:08.506Z,9.05
2023-03-06T12:13:00.581Z,8.15
2023-03-06T12:15:27.163Z,9.32
2023-03-06T12:18:15.393Z,9.85
2023-03-06T12:21:04.461Z,9.30
2023-03-06T12:24:10.408Z,10.88
2023-03-06T12:27:12.481Z,8.52
2023-03-06T12:29:42.094Z,8.95
2023-03-06T12:32:23.816Z,10.48
2023-03-06T12:35:16.455Z,9.52
2023-03-06T12:38:01.114Z,9.93
2023-03-06T12:40:36.851Z,9.32
2023-03-06T12:43:29.479Z,10.10
2023-03-06T12:46:09.579Z,10.55
2023-03-06T12:48:40.065Z,10.52
2023-03-06T12:51:08.872Z,11.10
2023-03-06T12:53:36.841Z,10.80
2023-03-06T12:56:04.677Z,10.50
2023-03-06T12:58:31.238Z,10.88
2023-03-06T13:01:13.181Z,12.48
2023-03-06T13:04:16.840Z,11.63
2023-03-06T13:07:17.538Z,10.77
2023-03-06T13:10:08.873Z,10.80
2023-03-06T13:12:50.073Z,11.73
2023-03-06T13:15:38.096Z,10.63
2023-03-06T13:18:27.998Z,11.13
2023-03-06T13:20:58.199Z,10.60
2023-03-06T13:23:33.911Z,11.13
2023-03-06T13:26:36.740Z,11.02
2023-03-06T13:29:38.465Z,11.20
2023-03-06T13:32:07.841Z,10.10
2023-03-06T13:37:28.977Z,11.20
2023-03-06T13:39:55.624Z,10.60
2023-03-06T13:42:36.086Z,10.50
2023-03-06T13:45:46.759Z,11.18
2023-03-06T13:48:43.736Z,10.73
2023-03-06T13:51:20.521Z,9.82
2023-03-06T13:54:19.233Z,9.70
2023-03-06T13:57:11.166Z,9.73
2023-03-06T14:00:03.050Z,10.73
2023-03-06T14:02:55.796Z,10.35
2023-03-06T14:05:23.406Z,10.73
2023-03-06T14:08:06.837Z,11.13
2023-03-06T14:10:35.475Z,11.23
2023-03-06T14:13:05.863Z,10.63
2023-03-06T14:15:32.409Z,10.82
2023-03-06T14:18:13.933Z,11.10
2023-03-06T14:20:43.920Z,11.60
2023-03-06T14:23:24.270Z,11.48
2023-03-06T14:26:15.278Z,12.05
2023-03-06T14:28:44.286Z,11.25
2023-03-06T14:31:18.106Z,11.50
2023-03-06T14:33:53.138Z,11.13
2023-03-06T14:36:22.244Z,12.18
2023-03-06T14:38:56.087Z,12.13
2023-03-06T14:41:36.089Z,13.75
2023-03-06T14:44:30.165Z,13.25
2023-03-06T14:47:11.472Z,12.50
2023-03-06T14:49:38.100Z,13.45
2023-03-06T14:52:05.030Z,12.82
2023-03-06T14:54:34.389Z,15.00
2023-03-06T14:57:06.091Z,12.80
2023-03-06T14:59:52.922Z,12.35
2023-03-06T15:02:26.674Z,13.32
2023-03-06T15:05:12.581Z,12.43
2023-03-06T15:07:39.436Z,12.70
2023-03-06T15:10:10.498Z,12.95
2023-03-06T15:12:38.864Z,13.25
2023-03-06T15:15:10.412Z,13.55
2023-03-06T15:17:42.268Z,13.38
2023-03-06T15:20:47.309Z,13.85
2023-03-06T15:23:25.313Z,12.88
2023-03-06T15:25:53.567Z,13.48
2023-03-06T15:28:34.552Z,13.38
2023-03-06T15:31:10.667Z,13.95
2023-03-06T15:33:37.621Z,12.80
2023-03-06T15:36:18.107Z,13.05
2023-03-06T15:38:46.695Z,13.88
2023-03-06T15:41:41.898Z,11.00
2023-03-06T15:44:13.299Z,12.48
2023-03-06T15:46:39.928Z,14.23
2023-03-06T15:49:14.413Z,12.98
2023-03-06T15:51:41.071Z,12.68
2023-03-06T15:54:12.225Z,13.65
2023-03-06T15:56:41.011Z,13.88
2023-03-06T15:59:14.197Z,14.03
2023-03-06T16:01:43.044Z,14.27
2023-03-06T16:04:09.631Z,14.55
2023-03-06T16:06:37.324Z,14.30
2023-03-06T16:09:04.110Z,15.25
2023-03-06T16:11:41.874Z,14.10
2023-03-06T16:14:21.293Z,15.45
2023-03-06T16:16:48.460Z,14.15
2023-03-06T16:19:26.331Z,15.80
2023-03-06T16:21:54.672Z,16.00
2023-03-06T16:24:22.001Z,15.38
2023-03-06T16:26:53.408Z,15.75
2023-03-06T16:29:25.670Z,16.38
2023-03-06T16:31:53.723Z,16.50
2023-03-06T16:34:20.414Z,16.33
2023-03-06T16:36:48.790Z,17.92
2023-03-06T16:39:17.631Z,16.90
2023-03-06T16:41:47.490Z,17.13
2023-03-06T16:44:14.243Z,18.13
2023-03-06T16:46:46.256Z,16.80
2023-03-06T16:49:19.461Z,17.70
2023-03-06T16:51:46.160Z,18.92
2023-03-06T16:54:13.137Z,18.42
2023-03-06T16:56:39.894Z,17.05
2023-03-06T16:59:06.937Z,18.77
2023-03-06T17:01:33.944Z,19.20
2023-03-06T17:04:00.768Z,18.60
2023-03-06T17:06:27.862Z,20.33
2023-03-06T17:08:54.816Z,19.63
2023-03-06T17:11:21.557Z,21.00
2023-03-06T17:13:48.936Z,20.70
2023-03-06T17:16:16.752Z,21.15
2023-03-06T17:18:45.434Z,22.60
2023-03-06T17:21:15.682Z,21.20
2023-03-06T17:23:43.062Z,19.85
2023-03-06T17:26:13.246Z,20.33
2023-03-06T17:28:40.882Z,20.73
2023-03-06T17:31:19.558Z,20.13
2023-03-06T17:33:46.804Z,21.45
2023-03-06T17:36:14.700Z,20.23
2023-03-06T17:38:42.149Z,22.20
2023-03-06T17:41:10.806Z,21.00
2023-03-06T17:43:38.898Z,21.57
2023-03-06T17:46:11.942Z,20.40
2023-03-06T17:48:39.521Z,20.33
2023-03-06T17:51:06.774Z,21.33
2023-03-06T17:53:34.048Z,19.35
2023-03-06T17:56:03.740Z,20.27
2023-03-06T17:58:30.461Z,19.75
2023-03-06T18:00:57.220Z,21.35
2023-03-06T18:03:23.932Z,19.80
2023-03-06T18:06:03.604Z,21.73
2023-03-06T18:08:30.406Z,21.00
2023-03-06T18:11:01.175Z,20.48
2023-03-06T18:13:27.840Z,20.25
2023-03-06T18:15:54.738Z,18.80
2023-03-06T18:18:21.609Z,21.17
2023-03-06T18:20:48.323Z,19.67
2023-03-06T18:23:15.526Z,20.40
2023-03-06T18:25:42.414Z,18.73
2023-03-06T18:28:09.396Z,20.20
2023-03-06T18:30:38.096Z,20.27
2023-03-06T18:33:04.961Z,21.17
2023-03-06T18:35:31.699Z,20.45
2023-03-06T18:37:58.321Z,19.83
2023-03-06T18:40:25.044Z,20.63
2023-03-06T18:42:54.575Z,19.27
2023-03-06T18:45:21.459Z,21.20
2023-03-06T18:47:48.114Z,20.30
2023-03-06T18:50:17.672Z,20.30
2023-03-06T18:52:44.567Z,20.67
2023-03-06T18:55:12.266Z,19.40
2023-03-06T18:57:39.278Z,21.00
2023-03-06T19:00:07.512Z,22.38
2023-03-06T19:02:34.116Z,19.50
2023-03-06T19:05:00.731Z,19.55
2023-03-06T19:07:27.356Z,18.58
2023-03-06T19:09:54.105Z,19.73
2023-03-06T19:12:20.746Z,19.42
2023-03-06T19:14:47.518Z,18.85
2023-03-06T19:17:14.237Z,19.90
2023-03-06T19:19:40.964Z,19.67
2023-03-06T19:22:07.582Z,20.52
2023-03-06T19:24:34.269Z,20.60
2023-03-06T19:27:00.963Z,22.33
2023-03-06T19:29:28.555Z,22.50
2023-03-06T19:31:57.168Z,22.55
2023-03-06T19:34:24.025Z,23.02
2023-03-06T19:36:51.016Z,23.40
2023-03-06T19:39:27.358Z,22.33
2023-03-06T19:41:53.948Z,24.17
2023-03-06T19:44:20.602Z,23.67
2023-03-06T19:46:47.226Z,22.77
2023-03-06T19:49:18.016Z,21.90
2023-03-06T19:51:44.771Z,22.80
2023-03-06T19:54:12.468Z,23.08
2023-03-06T19:56:39.633Z,23.30
2023-03-06T19:59:06.306Z,21.80
2023-03-06T20:01:34.346Z,22.45
2023-03-06T20:04:01.641Z,22.65
2023-03-06T20:06:31.515Z,24.10
2023-03-06T20:08:58.500Z,22.55
2023-03-06T20:11:27.475Z,23.95
2023-03-06T20:13:54.428Z,24.20
2023-03-06T20:16:21.089Z,20.75
2023-03-06T20:18:47.794Z,21.63
2023-03-06T20:21:15.394Z,21.25
2023-03-06T20:23:42.494Z,22.15
2023-03-06T20:26:12.091Z,22.63
2023-03-06T20:28:39.714Z,22.08
2023-03-06T20:31:16.886Z,20.85
2023-03-06T20:33:48.952Z,22.05
2023-03-06T20:36:21.311Z,21.48
2023-03-06T20:38:48.567Z,22.83
2023-03-06T20:41:23.382Z,22.35
2023-03-06T20:43:50.670Z,23.08
2023-03-06T20:46:18.171Z,22.17
2023-03-06T20:48:48.963Z,22.13
2023-03-06T20:51:33.435Z,21.95
2023-03-06T20:54:01.682Z,22.25
2023-03-06T20:56:31.316Z,21.05
2023-03-06T20:58:58.987Z,21.58
2023-03-06T21:01:28.494Z,20.33
2023-03-06T21:03:56.968Z,20.42
2023-03-06T21:06:24.406Z,19.93
2023-03-06T21:08:51.148Z,20.60
2023-03-06T21:11:18.176Z,19.95
2023-03-06T21:13:45.141Z,19.45
2023-03-06T21:16:15.656Z,19.13
2023-03-06T21:18:43.159Z,18.92
2023-03-06T21:21:16.519Z,16.80
2023-03-06T21:23:43.259Z,17.95
2023-03-06T21:26:15.722Z,18.65
2023-03-06T21:28:43.398Z,16.83
2023-03-06T21:31:11.951Z,16.80
2023-03-06T21:33:39.375Z,18.93
2023-03-06T21:36:06.842Z,19.05
2023-03-06T21:38:34.218Z,17.05
2023-03-06T21:41:28.562Z,17.73
2023-03-06T21:43:57.070Z,17.35
2023-03-06T21:46:24.196Z,18.70
2023-03-06T21:48:51.188Z,17.00
2023-03-06T21:51:20.202Z,17.13
2023-03-06T21:53:48.133Z,17.95
2023-03-06T21:56:17.404Z,18.27
2023-03-06T21:58:44.687Z,17.65
2023-03-06T22:01:18.710Z,18.23
2023-03-06T22:03:45.810Z,17.23
2023-03-06T22:06:18.349Z,16.55
2023-03-06T22:08:45.738Z,17.42
2023-03-06T22:11:18.076Z,15.65
2023-03-06T22:13:46.094Z,16.02
2023-03-06T22:16:13.343Z,15.38
2023-03-06T22:18:40.644Z,15.75
2023-03-06T22:21:12.387Z,15.90
2023-03-06T22:23:40.461Z,16.42
2023-03-06T22:26:14.490Z,15.52
2023-03-06T22:28:42.155Z,16.92
2023-03-06T22:31:14.322Z,16.60
2023-03-06T22:33:41.299Z,14.65
2023-03-06T22:36:11.732Z,16.63
2023-03-06T22:38:40.754Z,16.55
2023-03-06T22:41:09.309Z,16.60
2023-03-06T22:43:36.702Z,15.40
2023-03-06T22:46:05.686Z,17.88
2023-03-06T22:48:33.052Z,15.50
2023-03-06T22:51:17.289Z,17.25
2023-03-06T22:53:44.466Z,16.55
2023-03-06T22:56:13.706Z,15.38
2023-03-06T22:58:40.693Z,16.27
2023-03-06T23:01:15.946Z,16.70
2023-03-06T23:03:45.296Z,16.15
2023-03-06T23:06:24.263Z,16.90
2023-03-06T23:09:00.700Z,17.15
2023-03-06T23:11:29.366Z,17.55
2023-03-06T23:13:57.133Z,16.02
2023-03-06T23:16:23.971Z,16.13
2023-03-06T23:18:52.857Z,17.13
2023-03-06T23:21:21.640Z,15.95
2023-03-06T23:23:50.272Z,16.50
2023-03-06T23:26:19.344Z,17.75
2023-03-06T23:28:46.389Z,16.75
2023-03-06T23:31:16.983Z,17.15
2023-03-06T23:33:43.944Z,16.63
2023-03-06T23:36:13.970Z,16.40
2023-03-06T23:38:41.061Z,16.65
2023-03-06T23:41:13.061Z,16.73
2023-03-06T23:43:40.403Z,16.58
2023-03-06T23:46:07.883Z,16.42
2023-03-06T23:48:36.252Z,15.98
2023-03-06T23:51:13.446Z,16.00
2023-03-06T23:53:40.585Z,17.48
2023-03-06T23:56:08.173Z,16.13
2023-03-06T23:58:35.776Z,16.60
